Time;durP1;ratioP1;P1;durP2;ratioP2;P2;SDS_P1;SDS_P2;PMS_P1;PMS_P2;Temp;Humidity;BMP_temperature;BMP_pressure;BME280_temperature;BME280_humidity;BME280_pressure;Samples;Min_cycle;Max_cycle;Signal;HPM_P1;HPM_P2
2021/09/03 00:00:40;;;;;;;9.70;8.63;;;;;;;;;;5113019;28;20046;-57
2021/09/03 00:03:05;;;;;;;11.27;8.75;;;;;;;;;;5113051;28;20023;-57
2021/09/03 00:05:30;;;;;;;11.70;8.93;;;;;;;;;;5095219;28;20020;-55
2021/09/03 00:07:56;;;;;;;11.05;8.35;;;;;;;;;;5112799;28;20062;-56
2021/09/03 00:10:22;;;;;;;10.40;8.60;;;;;;;;;;5113540;28;20054;-60
2021/09/03 00:12:47;;;;;;;11.25;9.18;;;;;;;;;;5112124;28;20023;-57
2021/09/03 00:15:13;;;;;;;15.68;9.38;;;;;;;;;;5113449;28;20027;-56
2021/09/03 00:17:39;;;;;;;10.05;8.40;;;;;;;;;;5112874;28;20011;-58
2021/09/03 00:20:05;;;;;;;11.73;9.02;;;;;;;;;;5113305;28;20476;-57
2021/09/03 00:22:31;;;;;;;12.38;8.55;;;;;;;;;;5112852;28;20461;-56
2021/09/03 00:24:56;;;;;;;11.60;8.98;;;;;;;;;;5094733;28;20158;-57
2021/09/03 00:27:21;;;;;;;9.55;8.43;;;;;;;;;;5112553;28;20041;-57
2021/09/03 00:29:46;;;;;;;10.80;8.25;;;;;;;;;;5112530;28;20044;-56
2021/09/03 00:32:11;;;;;;;10.30;7.90;;;;;;;;;;5112888;28;20023;-57
2021/09/03 00:34:37;;;;;;;11.60;8.13;;;;;;;;;;5112602;28;20016;-55
2021/09/03 00:37:02;;;;;;;10.20;7.97;;;;;;;;;;5112530;28;20439;-56
2021/09/03 00:39:27;;;;;;;8.68;7.78;;;;;;;;;;5112662;28;20019;-56
2021/09/03 00:41:52;;;;;;;10.23;7.65;;;;;;;;;;5112571;28;20034;-54
2021/09/03 00:44:18;;;;;;;9.73;7.68;;;;;;;;;;5112165;28;20397;-57
2021/09/03 00:46:43;;;;;;;9.95;7.95;;;;;;;;;;5112580;28;20016;-57
2021/09/03 00:49:08;;;;;;;8.60;7.43;;;;;;;;;;5111685;28;20036;-55
2021/09/03 00:51:33;;;;;;;8.98;7.30;;;;;;;;;;5112339;28;20484;-55
2021/09/03 00:53:59;;;;;;;9.82;8.10;;;;;;;;;;5112404;28;20031;-55
2021/09/03 00:56:24;;;;;;;8.77;7.78;;;;;;;;;;5111945;28;20102;-56
2021/09/03 00:58:49;;;;;;;10.60;7.40;;;;;;;;;;5111143;28;20024;-57
2021/09/03 01:01:17;;;;;;;9.45;8.15;;;;;;;;;;5112248;28;20312;-57
2021/09/03 01:03:42;;;;;;;8.88;7.78;;;;;;;;;;5111843;28;20422;-57
2021/09/03 01:06:08;;;;;;;11.02;7.78;;;;;;;;;;5112508;28;20095;-57
2021/09/03 01:08:33;;;;;;;8.50;7.60;;;;;;;;;;5112218;28;20038;-56
2021/09/03 01:10:59;;;;;;;8.55;7.13;;;;;;;;;;5112289;28;20502;-57
2021/09/03 01:13:24;;;;;;;10.80;7.57;;;;;;;;;;5111139;28;20488;-57
2021/09/03 01:15:50;;;;;;;10.00;7.25;;;;;;;;;;5112200;28;20027;-58
2021/09/03 01:18:15;;;;;;;8.85;7.93;;;;;;;;;;5111968;28;20781;-56
2021/09/03 01:20:40;;;;;;;9.25;7.85;;;;;;;;;;5112059;28;20019;-57
2021/09/03 01:23:05;;;;;;;8.02;6.90;;;;;;;;;;5111980;28;20425;-57
2021/09/03 01:25:31;;;;;;;8.50;7.70;;;;;;;;;;5112075;28;20016;-54
2021/09/03 01:27:56;;;;;;;8.70;7.65;;;;;;;;;;5111431;28;20059;-53
2021/09/03 01:30:21;;;;;;;7.82;7.03;;;;;;;;;;5111918;28;20059;-55
2021/09/03 01:32:48;;;;;;;9.43;7.45;;;;;;;;;;5111857;28;20094;-56
2021/09/03 01:35:14;;;;;;;8.27;7.38;;;;;;;;;;5111982;28;20109;-57
2021/09/03 01:37:39;;;;;;;8.98;7.28;;;;;;;;;;5093143;28;20481;-56
2021/09/03 01:40:04;;;;;;;14.45;8.32;;;;;;;;;;5111842;28;20019;-57
2021/09/03 01:42:30;;;;;;;13.45;9.50;;;;;;;;;;5111942;28;20024;-57
2021/09/03 01:44:55;;;;;;;12.18;9.18;;;;;;;;;;5111372;28;20024;-56
2021/09/03 01:47:20;;;;;;;12.93;10.50;;;;;;;;;;5111722;28;20363;-57
2021/09/03 01:49:45;;;;;;;16.08;10.52;;;;;;;;;;5112131;28;20081;-56
2021/09/03 01:52:10;;;;;;;12.27;9.77;;;;;;;;;;5111203;28;20020;-56
2021/09/03 01:54:36;;;;;;;11.68;9.40;;;;;;;;;;5093837;28;20038;-55
2021/09/03 01:57:01;;;;;;;10.93;8.95;;;;;;;;;;5111059;28;20030;-56
2021/09/03 01:59:26;;;;;;;11.80;9.88;;;;;;;;;;5112831;28;20012;-57
2021/09/03 02:01:51;;;;;;;12.23;9.95;;;;;;;;;;5115452;28;20389;-55
2021/09/03 02:04:17;;;;;;;13.88;9.43;;;;;;;;;;5115512;28;20024;-57
2021/09/03 02:06:42;;;;;;;11.57;9.57;;;;;;;;;;5115801;28;20034;-56
2021/09/03 02:09:07;;;;;;;10.75;9.27;;;;;;;;;;5115553;28;20015;-56
2021/09/03 02:11:32;;;;;;;13.93;8.93;;;;;;;;;;5115181;28;20019;-56
2021/09/03 02:13:57;;;;;;;11.02;8.50;;;;;;;;;;5115298;28;20378;-56
2021/09/03 02:16:23;;;;;;;12.52;8.68;;;;;;;;;;5115907;28;20034;-57
2021/09/03 02:18:48;;;;;;;9.23;7.53;;;;;;;;;;5115292;28;20390;-58
2021/09/03 02:21:13;;;;;;;8.70;7.50;;;;;;;;;;5115415;28;20412;-56
2021/09/03 02:23:38;;;;;;;9.63;7.90;;;;;;;;;;5115457;28;20046;-57
2021/09/03 02:26:04;;;;;;;9.15;7.93;;;;;;;;;;5115397;28;20047;-56
2021/09/03 02:28:29;;;;;;;9.98;8.35;;;;;;;;;;5114654;28;20056;-57
2021/09/03 02:30:55;;;;;;;8.35;7.50;;;;;;;;;;5115146;28;20591;-58
2021/09/03 02:33:20;;;;;;;11.10;7.95;;;;;;;;;;5096257;28;20533;-55
2021/09/03 02:35:45;;;;;;;10.02;7.63;;;;;;;;;;5115546;28;20031;-57
2021/09/03 02:38:11;;;;;;;10.75;8.27;;;;;;;;;;5115158;28;20484;-57
2021/09/03 02:40:36;;;;;;;9.98;7.65;;;;;;;;;;5114570;28;20500;-57
2021/09/03 02:43:02;;;;;;;9.52;7.82;;;;;;;;;;5114438;28;20022;-57
2021/09/03 02:45:27;;;;;;;11.77;9.32;;;;;;;;;;5114980;28;20008;-55
2021/09/03 02:47:52;;;;;;;11.85;9.43;;;;;;;;;;5114649;28;20027;-57
2021/09/03 02:50:17;;;;;;;10.18;9.07;;;;;;;;;;5096293;28;20065;-56
2021/09/03 02:52:43;;;;;;;10.75;8.75;;;;;;;;;;5114653;28;20068;-57
2021/09/03 02:55:08;;;;;;;11.68;8.52;;;;;;;;;;5114779;28;20431;-58
2021/09/03 02:57:33;;;;;;;12.52;9.00;;;;;;;;;;5113525;28;20064;-56
2021/09/03 02:59:58;;;;;;;13.75;9.23;;;;;;;;;;5113959;28;20055;-55
2021/09/03 03:02:24;;;;;;;12.60;10.20;;;;;;;;;;5114910;28;20031;-57
2021/09/03 03:04:49;;;;;;;13.25;10.10;;;;;;;;;;5113902;28;20025;-57
2021/09/03 03:07:14;;;;;;;12.05;9.70;;;;;;;;;;5114284;28;20020;-57
2021/09/03 03:09:40;;;;;;;15.85;10.73;;;;;;;;;;5114383;28;20494;-56
2021/09/03 03:12:06;;;;;;;13.48;10.48;;;;;;;;;;5113330;28;20417;-57
2021/09/03 03:14:34;;;;;;;14.85;11.18;;;;;;;;;;5114412;28;20019;-57
2021/09/03 03:17:01;;;;;;;14.75;11.30;;;;;;;;;;5114489;28;20011;-56
2021/09/03 03:19:26;;;;;;;13.52;10.25;;;;;;;;;;5114019;28;20438;-55
2021/09/03 03:21:52;;;;;;;11.18;10.02;;;;;;;;;;5114212;28;20057;-57
2021/09/03 03:24:17;;;;;;;13.70;10.43;;;;;;;;;;5114250;28;20196;-58
2021/09/03 03:26:43;;;;;;;11.07;9.80;;;;;;;;;;5114164;28;20057;-56
2021/09/03 03:29:08;;;;;;;14.35;10.18;;;;;;;;;;5113764;28;20071;-57
2021/09/03 03:31:33;;;;;;;13.77;9.75;;;;;;;;;;5114055;28;20381;-56
2021/09/03 03:33:59;;;;;;;14.75;10.40;;;;;;;;;;5095938;28;20085;-56
2021/09/03 03:36:24;;;;;;;14.77;10.32;;;;;;;;;;5114350;28;20069;-57
2021/09/03 03:38:50;;;;;;;12.45;10.50;;;;;;;;;;5113533;28;20041;-57
2021/09/03 03:41:15;;;;;;;12.57;10.88;;;;;;;;;;5113016;28;20490;-58
2021/09/03 03:43:40;;;;;;;13.65;11.50;;;;;;;;;;5113398;28;20022;-58
2021/09/03 03:46:05;;;;;;;14.00;12.05;;;;;;;;;;5114001;28;20107;-57
2021/09/03 03:48:30;;;;;;;13.65;11.40;;;;;;;;;;5113441;28;20032;-57
2021/09/03 03:50:56;;;;;;;16.20;12.20;;;;;;;;;;5113625;28;20380;-55
2021/09/03 03:53:21;;;;;;;13.15;9.48;;;;;;;;;;5113328;28;20045;-57
2021/09/03 03:55:46;;;;;;;11.45;8.98;;;;;;;;;;5113587;28;20024;-57
2021/09/03 03:58:11;;;;;;;11.50;9.38;;;;;;;;;;5113152;28;20481;-58
2021/09/03 04:00:37;;;;;;;11.45;9.55;;;;;;;;;;5113162;28;20027;-56
2021/09/03 04:03:02;;;;;;;9.60;8.60;;;;;;;;;;5113294;28;20028;-58
2021/09/03 04:05:27;;;;;;;11.73;8.77;;;;;;;;;;5113770;28;20039;-58
2021/09/03 04:07:52;;;;;;;12.73;8.60;;;;;;;;;;5113197;28;20071;-58
2021/09/03 04:10:18;;;;;;;13.23;9.68;;;;;;;;;;5113311;28;20378;-57
2021/09/03 04:12:43;;;;;;;11.35;9.50;;;;;;;;;;5112556;28;20034;-56
2021/09/03 04:15:09;;;;;;;14.48;10.10;;;;;;;;;;5112549;28;20587;-54
2021/09/03 04:17:34;;;;;;;12.48;9.85;;;;;;;;;;5100782;28;20015;-56
2021/09/03 04:19:59;;;;;;;13.70;10.55;;;;;;;;;;5113392;28;20165;-55
2021/09/03 04:22:24;;;;;;;15.65;10.85;;;;;;;;;;5112326;28;20455;-58
2021/09/03 04:24:49;;;;;;;12.85;9.90;;;;;;;;;;5113179;28;20571;-57
2021/09/03 04:27:15;;;;;;;12.48;10.05;;;;;;;;;;5112773;28;20023;-54
2021/09/03 04:29:40;;;;;;;14.70;9.32;;;;;;;;;;5112469;28;20039;-56
2021/09/03 04:32:05;;;;;;;11.02;8.05;;;;;;;;;;5112211;28;20027;-54
2021/09/03 04:34:31;;;;;;;10.18;8.10;;;;;;;;;;5113079;28;20026;-57
2021/09/03 04:36:56;;;;;;;15.68;11.75;;;;;;;;;;5112588;28;20428;-57
2021/09/03 04:39:21;;;;;;;14.25;10.13;;;;;;;;;;5112807;28;20027;-56
2021/09/03 04:41:46;;;;;;;10.57;9.45;;;;;;;;;;5112291;28;20046;-55
2021/09/03 04:44:11;;;;;;;11.40;10.02;;;;;;;;;;5112157;28;20098;-55
2021/09/03 04:46:37;;;;;;;13.25;10.27;;;;;;;;;;5112667;28;20012;-56
2021/09/03 04:49:02;;;;;;;14.43;10.43;;;;;;;;;;5112690;28;20470;-57
2021/09/03 04:51:27;;;;;;;17.30;11.80;;;;;;;;;;5112222;28;20024;-54
2021/09/03 04:53:52;;;;;;;14.18;10.70;;;;;;;;;;5112520;28;20494;-56
2021/09/03 04:56:18;;;;;;;12.73;10.70;;;;;;;;;;5112007;28;20019;-57
2021/09/03 04:58:43;;;;;;;15.63;11.13;;;;;;;;;;5111901;28;20026;-55
2021/09/03 05:01:08;;;;;;;13.80;10.82;;;;;;;;;;5112530;28;20015;-57
2021/09/03 05:03:33;;;;;;;14.18;10.52;;;;;;;;;;5112134;28;20383;-55
2021/09/03 05:05:58;;;;;;;12.90;10.82;;;;;;;;;;5093730;28;20470;-57
2021/09/03 05:08:24;;;;;;;14.10;11.20;;;;;;;;;;5111798;28;20055;-58
2021/09/03 05:10:49;;;;;;;11.85;10.45;;;;;;;;;;5111776;28;20092;-56
2021/09/03 05:13:14;;;;;;;12.10;10.18;;;;;;;;;;5111589;28;20524;-57
2021/09/03 05:15:40;;;;;;;16.80;10.70;;;;;;;;;;5112055;28;20031;-58
2021/09/03 05:18:06;;;;;;;13.25;11.32;;;;;;;;;;5108705;28;20112;-55
2021/09/03 05:20:31;;;;;;;13.45;11.02;;;;;;;;;;5112469;28;20015;-57
2021/09/03 05:22:57;;;;;;;13.43;10.73;;;;;;;;;;5106611;28;20008;-55
2021/09/03 05:25:22;;;;;;;16.33;11.73;;;;;;;;;;5111910;28;20363;-57
2021/09/03 05:27:47;;;;;;;12.98;11.02;;;;;;;;;;5111209;28;20474;-57
2021/09/03 05:30:14;;;;;;;15.68;10.93;;;;;;;;;;5111473;28;20401;-57
2021/09/03 05:32:39;;;;;;;12.85;10.10;;;;;;;;;;5111823;28;20518;-56
2021/09/03 05:35:05;;;;;;;12.27;10.02;;;;;;;;;;5115843;28;20103;-57
2021/09/03 05:37:30;;;;;;;13.20;10.43;;;;;;;;;;5117928;28;20486;-57
2021/09/03 05:39:58;;;;;;;10.40;9.30;;;;;;;;;;5118148;28;20024;-55
2021/09/03 05:42:23;;;;;;;12.75;9.48;;;;;;;;;;5118780;28;20019;-56
2021/09/03 05:44:48;;;;;;;11.43;9.50;;;;;;;;;;5118038;28;20509;-56
2021/09/03 05:47:14;;;;;;;11.90;9.60;;;;;;;;;;5094162;28;20097;-57
2021/09/03 05:49:39;;;;;;;16.27;9.48;;;;;;;;;;5100746;28;20029;-57
2021/09/03 05:52:04;;;;;;;13.27;9.32;;;;;;;;;;5118350;28;20374;-57
2021/09/03 05:54:29;;;;;;;10.38;9.13;;;;;;;;;;5118348;28;20016;-55
2021/09/03 05:56:55;;;;;;;10.32;9.18;;;;;;;;;;5117577;28;20019;-56
2021/09/03 05:59:21;;;;;;;10.43;8.57;;;;;;;;;;5117387;28;20027;-57
2021/09/03 06:01:46;;;;;;;11.68;8.88;;;;;;;;;;5118272;28;20434;-57
2021/09/03 06:04:11;;;;;;;9.77;8.63;;;;;;;;;;5118613;28;20102;-58
2021/09/03 06:06:37;;;;;;;11.82;8.75;;;;;;;;;;5118342;28;20385;-56
2021/09/03 06:09:02;;;;;;;11.77;9.05;;;;;;;;;;5118401;28;20054;-58
2021/09/03 06:11:27;;;;;;;11.38;8.13;;;;;;;;;;5118215;28;20084;-54
2021/09/03 06:13:53;;;;;;;9.45;8.43;;;;;;;;;;5118060;28;20469;-56
2021/09/03 06:16:18;;;;;;;9.18;7.65;;;;;;;;;;5118143;28;20527;-57
2021/09/03 06:18:43;;;;;;;12.00;8.45;;;;;;;;;;5118079;28;20419;-56
2021/09/03 06:21:09;;;;;;;11.20;7.60;;;;;;;;;;5118566;28;20054;-57
2021/09/03 06:23:34;;;;;;;10.02;8.10;;;;;;;;;;5118473;28;20505;-57
2021/09/03 06:25:59;;;;;;;8.50;7.63;;;;;;;;;;5118099;28;20050;-56
2021/09/03 06:28:24;;;;;;;11.73;8.48;;;;;;;;;;5117765;28;20505;-57
2021/09/03 06:30:50;;;;;;;11.00;7.65;;;;;;;;;;5118103;28;20557;-57
2021/09/03 06:33:15;;;;;;;10.15;7.28;;;;;;;;;;5118278;28;20395;-56
2021/09/03 06:35:40;;;;;;;10.05;7.38;;;;;;;;;;5117937;28;20096;-56
2021/09/03 06:38:05;;;;;;;13.32;7.70;;;;;;;;;;5117761;28;20482;-57
2021/09/03 06:40:32;;;;;;;9.25;7.15;;;;;;;;;;5118187;28;20044;-57
2021/09/03 06:42:57;;;;;;;9.77;7.40;;;;;;;;;;5117945;28;20080;-55
2021/09/03 06:45:22;;;;;;;7.88;7.07;;;;;;;;;;5097368;28;20008;-58
2021/09/03 06:47:48;;;;;;;8.25;6.57;;;;;;;;;;5114738;28;20020;-58
2021/09/03 06:50:13;;;;;;;10.63;7.95;;;;;;;;;;5115305;28;20020;-58
2021/09/03 06:52:38;;;;;;;11.45;7.75;;;;;;;;;;5114949;28;20047;-56
2021/09/03 06:55:04;;;;;;;9.85;7.65;;;;;;;;;;5114663;28;20028;-56
2021/09/03 06:57:29;;;;;;;8.20;7.20;;;;;;;;;;5114484;28;20035;-57
2021/09/03 06:59:54;;;;;;;9.60;7.25;;;;;;;;;;5114093;28;20019;-59
2021/09/03 07:02:20;;;;;;;9.40;7.53;;;;;;;;;;5114938;28;20514;-56
2021/09/03 07:04:45;;;;;;;10.82;7.78;;;;;;;;;;5114079;28;20514;-57
2021/09/03 07:07:10;;;;;;;9.85;7.95;;;;;;;;;;5114035;28;20039;-58
2021/09/03 07:09:35;;;;;;;10.65;7.95;;;;;;;;;;5114175;28;20022;-57
2021/09/03 07:12:00;;;;;;;8.57;7.05;;;;;;;;;;5114806;28;20015;-57
2021/09/03 07:14:26;;;;;;;10.10;7.97;;;;;;;;;;5113905;28;20030;-57
2021/09/03 07:16:51;;;;;;;9.75;8.05;;;;;;;;;;5114582;28;20042;-57
2021/09/03 07:19:16;;;;;;;7.78;6.47;;;;;;;;;;5108444;28;20024;-58
2021/09/03 07:21:42;;;;;;;8.68;7.28;;;;;;;;;;5112541;28;20454;-58
2021/09/03 07:24:08;;;;;;;8.35;7.53;;;;;;;;;;5114111;28;20024;-58
2021/09/03 07:26:33;;;;;;;9.38;7.05;;;;;;;;;;5113589;28;20060;-57
2021/09/03 07:28:58;;;;;;;8.75;7.85;;;;;;;;;;5112952;28;20509;-54
2021/09/03 07:31:24;;;;;;;9.07;7.32;;;;;;;;;;5114141;28;20028;-57
2021/09/03 07:33:49;;;;;;;9.40;6.72;;;;;;;;;;5113493;28;20058;-56
2021/09/03 07:36:15;;;;;;;8.65;7.75;;;;;;;;;;5103853;28;20024;-58
2021/09/03 07:38:40;;;;;;;8.43;7.13;;;;;;;;;;5097289;28;20028;-59
2021/09/03 07:41:06;;;;;;;11.00;7.20;;;;;;;;;;5093393;28;20539;-58
2021/09/03 07:43:31;;;;;;;12.02;7.82;;;;;;;;;;5110400;28;20024;-56
2021/09/03 07:45:56;;;;;;;8.10;6.88;;;;;;;;;;5113797;28;20382;-59
2021/09/03 07:48:22;;;;;;;9.63;7.13;;;;;;;;;;5112845;28;20497;-56
2021/09/03 07:50:47;;;;;;;7.45;6.63;;;;;;;;;;5113446;28;20363;-55
2021/09/03 07:53:13;;;;;;;10.38;7.32;;;;;;;;;;5113749;28;20358;-57
2021/09/03 07:55:38;;;;;;;7.25;6.03;;;;;;;;;;5113113;28;20012;-57
2021/09/03 07:58:04;;;;;;;8.35;6.13;;;;;;;;;;5112812;28;20377;-57
2021/09/03 08:00:29;;;;;;;7.13;5.82;;;;;;;;;;5113372;28;20418;-57
2021/09/03 08:02:54;;;;;;;5.32;4.82;;;;;;;;;;5113321;28;20058;-57
2021/09/03 08:05:20;;;;;;;7.50;5.60;;;;;;;;;;5113220;28;20024;-58
2021/09/03 08:07:45;;;;;;;6.65;5.00;;;;;;;;;;5112954;28;20276;-57
2021/09/03 08:10:13;;;;;;;7.45;5.10;;;;;;;;;;5113099;28;20034;-58
2021/09/03 08:12:39;;;;;;;6.15;4.70;;;;;;;;;;5113089;28;20022;-57
2021/09/03 08:15:05;;;;;;;6.47;4.15;;;;;;;;;;5112527;28;20106;-57
2021/09/03 08:17:30;;;;;;;7.95;5.05;;;;;;;;;;5112679;28;20035;-59
2021/09/03 08:19:55;;;;;;;6.97;5.68;;;;;;;;;;5111143;28;20027;-56
2021/09/03 08:22:21;;;;;;;5.85;5.25;;;;;;;;;;5112424;28;20189;-56
2021/09/03 08:24:46;;;;;;;6.68;4.72;;;;;;;;;;5113225;28;20498;-57
2021/09/03 08:27:11;;;;;;;6.32;4.40;;;;;;;;;;5112893;28;20529;-56
2021/09/03 08:29:36;;;;;;;4.50;3.80;;;;;;;;;;5111838;28;20541;-57
2021/09/03 08:32:01;;;;;;;4.35;3.70;;;;;;;;;;5113406;28;20016;-57
2021/09/03 08:34:27;;;;;;;4.85;4.05;;;;;;;;;;5112507;28;20023;-55
2021/09/03 08:36:52;;;;;;;4.90;3.83;;;;;;;;;;5090750;28;20400;-56
2021/09/03 08:39:17;;;;;;;3.60;3.10;;;;;;;;;;5110950;28;20277;-57
2021/09/03 08:41:42;;;;;;;3.90;2.85;;;;;;;;;;5094206;28;20107;-56
2021/09/03 08:44:08;;;;;;;3.83;3.28;;;;;;;;;;5111780;28;20058;-58
2021/09/03 08:46:34;;;;;;;4.30;3.40;;;;;;;;;;5107507;28;20406;-57
2021/09/03 08:49:03;;;;;;;4.75;3.30;;;;;;;;;;5112320;28;20273;-55
2021/09/03 08:51:29;;;;;;;3.35;2.95;;;;;;;;;;5112463;28;20498;-57
2021/09/03 08:53:54;;;;;;;3.42;2.53;;;;;;;;;;5112400;28;20101;-56
2021/09/03 08:56:22;;;;;;;3.58;2.75;;;;;;;;;;5110147;28;20144;-56
2021/09/03 08:58:48;;;;;;;3.67;3.10;;;;;;;;;;5111845;28;20023;-57
2021/09/03 09:01:15;;;;;;;3.17;2.58;;;;;;;;;;5112562;28;20019;-56
2021/09/03 09:03:43;;;;;;;4.43;2.45;;;;;;;;;;5112354;28;20021;-58
2021/09/03 09:06:09;;;;;;;2.30;1.63;;;;;;;;;;5112280;28;20352;-57
2021/09/03 09:08:35;;;;;;;2.58;2.35;;;;;;;;;;5111240;28;20474;-56
2021/09/03 09:11:00;;;;;;;4.28;2.58;;;;;;;;;;5111879;28;20024;-57
2021/09/03 09:13:30;;;;;;;5.80;2.45;;;;;;;;;;5111721;28;20353;-58
2021/09/03 09:15:56;;;;;;;2.90;2.30;;;;;;;;;;5110747;28;20693;-57
2021/09/03 09:18:51;;;;;;;4.03;2.58;;;;;;;;;;5111538;28;20485;-56
2021/09/03 09:21:19;;;;;;;3.20;2.53;;;;;;;;;;5099036;28;20035;-57
2021/09/03 09:23:55;;;;;;;3.45;2.55;;;;;;;;;;5109727;28;20020;-56
2021/09/03 09:26:22;;;;;;;4.45;2.80;;;;;;;;;;5110777;28;20019;-56
2021/09/03 09:28:48;;;;;;;3.80;2.40;;;;;;;;;;5092590;28;20138;-58
2021/09/03 09:31:26;;;;;;;2.67;1.85;;;;;;;;;;5112240;28;20504;-56
2021/09/03 09:33:52;;;;;;;2.40;2.20;;;;;;;;;;5110672;28;20481;-56
2021/09/03 09:36:17;;;;;;;2.47;1.55;;;;;;;;;;5104431;28;20034;-55
2021/09/03 09:38:44;;;;;;;2.13;1.80;;;;;;;;;;5105993;28;20062;-57
2021/09/03 09:41:12;;;;;;;4.50;2.40;;;;;;;;;;5097158;28;20257;-58
2021/09/03 09:43:41;;;;;;;2.30;2.10;;;;;;;;;;5110951;28;20504;-57
2021/09/03 09:46:06;;;;;;;2.55;1.08;;;;;;;;;;5112041;28;20489;-58
2021/09/03 09:48:32;;;;;;;1.70;1.60;;;;;;;;;;5109070;28;20016;-58
2021/09/03 09:50:57;;;;;;;2.50;2.30;;;;;;;;;;5111069;28;20266;-57
2021/09/03 09:53:22;;;;;;;1.53;1.30;;;;;;;;;;5111797;28;20604;-57
2021/09/03 09:55:47;;;;;;;3.23;1.27;;;;;;;;;;5110780;28;20301;-58
2021/09/03 09:58:14;;;;;;;2.03;1.88;;;;;;;;;;5110848;28;20291;-55
2021/09/03 10:00:40;;;;;;;3.17;2.03;;;;;;;;;;5111347;28;20015;-57
2021/09/03 10:03:05;;;;;;;2.63;1.85;;;;;;;;;;5111339;28;20019;-58
2021/09/03 10:05:31;;;;;;;2.83;2.10;;;;;;;;;;5112337;28;20027;-55
2021/09/03 10:07:57;;;;;;;3.10;2.00;;;;;;;;;;5111199;28;20023;-56
2021/09/03 10:10:23;;;;;;;2.45;1.98;;;;;;;;;;5110837;28;20098;-58
2021/09/03 10:12:48;;;;;;;2.40;2.20;;;;;;;;;;5111036;28;20047;-58
2021/09/03 10:15:14;;;;;;;3.15;2.30;;;;;;;;;;5111144;28;20046;-58
2021/09/03 10:17:40;;;;;;;2.20;1.98;;;;;;;;;;5110758;28;20035;-57
2021/09/03 10:20:06;;;;;;;6.25;2.80;;;;;;;;;;5112413;28;20016;-57
2021/09/03 10:22:40;;;;;;;2.45;1.95;;;;;;;;;;5115251;28;20102;-55
2021/09/03 10:25:06;;;;;;;3.30;2.65;;;;;;;;;;5115486;28;20020;-55
2021/09/03 10:27:32;;;;;;;2.45;2.00;;;;;;;;;;5114782;28;20161;-56
2021/09/03 10:30:10;;;;;;;3.43;2.30;;;;;;;;;;5114675;28;20541;-57
2021/09/03 10:32:35;;;;;;;4.03;2.50;;;;;;;;;;5114994;28;20253;-59
2021/09/03 10:35:02;;;;;;;3.33;2.15;;;;;;;;;;5114501;28;20018;-57
2021/09/03 10:37:29;;;;;;;2.75;2.47;;;;;;;;;;5114476;28;20474;-57
2021/09/03 10:39:57;;;;;;;2.75;2.00;;;;;;;;;;5113640;28;20473;-57
2021/09/03 10:42:45;;;;;;;2.88;2.00;;;;;;;;;;5109258;28;20048;-58
2021/09/03 10:45:10;;;;;;;4.68;2.33;;;;;;;;;;5109134;28;20115;-56
2021/09/03 10:47:38;;;;;;;2.30;2.10;;;;;;;;;;5115118;28;20487;-58
2021/09/03 10:50:15;;;;;;;2.92;2.00;;;;;;;;;;5114525;28;20374;-57
2021/09/03 10:53:00;;;;;;;5.18;2.58;;;;;;;;;;5114652;28;20031;-57
2021/09/03 10:55:44;;;;;;;3.88;2.72;;;;;;;;;;5114304;28;20023;-58
2021/09/03 10:58:09;;;;;;;4.50;2.40;;;;;;;;;;5113892;28;20031;-58
2021/09/03 11:00:35;;;;;;;3.17;2.27;;;;;;;;;;5113818;28;20525;-56
2021/09/03 11:03:20;;;;;;;2.70;2.50;;;;;;;;;;5107050;28;20475;-58
2021/09/03 11:05:45;;;;;;;4.50;2.88;;;;;;;;;;5113612;28;20024;-57
2021/09/03 11:08:30;;;;;;;3.27;2.93;;;;;;;;;;5113783;28;20068;-55
2021/09/03 11:10:55;;;;;;;3.05;2.85;;;;;;;;;;5108018;28;20024;-57
2021/09/03 11:13:21;;;;;;;3.67;2.77;;;;;;;;;;5114125;28;20587;-57
2021/09/03 11:15:46;;;;;;;3.07;2.77;;;;;;;;;;5113513;28;20691;-57
2021/09/03 11:18:11;;;;;;;2.60;2.30;;;;;;;;;;5113242;28;20281;-57
2021/09/03 11:20:36;;;;;;;3.37;2.77;;;;;;;;;;5114063;28;20412;-57
2021/09/03 11:23:07;;;;;;;3.30;2.53;;;;;;;;;;5114473;28;20032;-58
2021/09/03 11:25:32;;;;;;;3.55;3.17;;;;;;;;;;5114150;28;20024;-55
2021/09/03 11:27:58;;;;;;;3.77;3.20;;;;;;;;;;5114209;28;20138;-57
2021/09/03 11:30:23;;;;;;;3.70;2.90;;;;;;;;;;5113139;28;20301;-54
2021/09/03 11:32:48;;;;;;;2.87;2.67;;;;;;;;;;5112896;28;20422;-58
2021/09/03 11:35:14;;;;;;;4.40;2.38;;;;;;;;;;5113632;28;20038;-57
2021/09/03 11:37:40;;;;;;;3.50;3.20;;;;;;;;;;5113438;28;20053;-57
2021/09/03 11:40:08;;;;;;;4.25;2.80;;;;;;;;;;5111388;28;20241;-56
2021/09/03 11:42:34;;;;;;;2.78;2.58;;;;;;;;;;5092318;28;20063;-57
2021/09/03 11:45:08;;;;;;;3.92;2.67;;;;;;;;;;5112422;28;20023;-58
2021/09/03 11:47:37;;;;;;;2.80;2.60;;;;;;;;;;5112507;28;20020;-58
2021/09/03 11:50:11;;;;;;;2.72;2.53;;;;;;;;;;5093116;28;20267;-56
2021/09/03 11:52:37;;;;;;;3.05;2.42;;;;;;;;;;5093511;28;20030;-58
2021/09/03 11:55:05;;;;;;;2.63;2.42;;;;;;;;;;5098031;28;20027;-57
2021/09/03 11:57:47;;;;;;;3.47;2.47;;;;;;;;;;5112728;28;20022;-58
2021/09/03 12:00:13;;;;;;;2.53;2.38;;;;;;;;;;5112159;28;20019;-56
2021/09/03 12:02:38;;;;;;;2.95;2.55;;;;;;;;;;5113310;28;20547;-58
2021/09/03 12:05:04;;;;;;;4.07;2.70;;;;;;;;;;5111733;28;20058;-57
2021/09/03 12:07:29;;;;;;;3.05;2.75;;;;;;;;;;5112766;28;20047;-57
2021/09/03 12:09:55;;;;;;;3.00;2.70;;;;;;;;;;5111969;28;20068;-57
2021/09/03 12:12:27;;;;;;;2.75;2.17;;;;;;;;;;5111797;28;20487;-58
2021/09/03 12:14:54;;;;;;;2.90;2.65;;;;;;;;;;5111912;28;20015;-56
2021/09/03 12:17:20;;;;;;;3.65;2.50;;;;;;;;;;5112400;28;21088;-57
2021/09/03 12:19:45;;;;;;;2.58;2.38;;;;;;;;;;5093929;28;20038;-57
2021/09/03 12:22:17;;;;;;;2.77;2.27;;;;;;;;;;5111891;28;20011;-56
2021/09/03 12:24:47;;;;;;;3.00;2.75;;;;;;;;;;5112322;28;20102;-58
2021/09/03 12:27:13;;;;;;;3.30;2.90;;;;;;;;;;5112034;28;20019;-57
2021/09/03 12:29:39;;;;;;;3.78;2.50;;;;;;;;;;5110600;28;20039;-57
2021/09/03 12:32:05;;;;;;;2.55;2.35;;;;;;;;;;5113102;27;20500;-57
2021/09/03 12:34:32;;;;;;;4.90;3.20;;;;;;;;;;5112750;28;20034;-57
2021/09/03 12:37:01;;;;;;;2.20;2.10;;;;;;;;;;5111949;28;20064;-57
2021/09/03 12:39:27;;;;;;;2.55;2.30;;;;;;;;;;5111901;28;20120;-56
2021/09/03 12:41:53;;;;;;;3.83;2.90;;;;;;;;;;5112156;28;20482;-57
2021/09/03 12:44:20;;;;;;;2.72;2.42;;;;;;;;;;5110672;28;20522;-58
2021/09/03 12:46:46;;;;;;;2.83;2.25;;;;;;;;;;5111916;28;20099;-57
2021/09/03 12:49:11;;;;;;;2.67;2.45;;;;;;;;;;5111124;28;20103;-58
2021/09/03 12:51:37;;;;;;;2.60;2.40;;;;;;;;;;5112175;28;20015;-57
2021/09/03 12:54:03;;;;;;;2.80;2.60;;;;;;;;;;5111891;28;20373;-57
2021/09/03 12:56:28;;;;;;;3.15;2.25;;;;;;;;;;5112156;28;20023;-56
2021/09/03 12:58:53;;;;;;;2.28;2.17;;;;;;;;;;5096541;28;20477;-57
2021/09/03 13:01:19;;;;;;;2.43;2.23;;;;;;;;;;5113454;27;20030;-58
2021/09/03 13:03:45;;;;;;;2.50;2.22;;;;;;;;;;5112286;28;20031;-58
2021/09/03 13:06:11;;;;;;;2.88;2.50;;;;;;;;;;5111868;28;20016;-59
2021/09/03 13:08:37;;;;;;;2.90;2.70;;;;;;;;;;5111850;27;20019;-58
2021/09/03 13:11:03;;;;;;;2.38;2.15;;;;;;;;;;5094838;28;20501;-57
2021/09/03 13:13:28;;;;;;;2.70;1.67;;;;;;;;;;5111321;28;20043;-58
2021/09/03 13:15:53;;;;;;;3.00;2.67;;;;;;;;;;5109359;28;20050;-57
2021/09/03 13:18:18;;;;;;;2.40;2.30;;;;;;;;;;5111644;28;20484;-57
2021/09/03 13:20:44;;;;;;;2.43;2.33;;;;;;;;;;5111114;28;20057;-54
2021/09/03 13:23:09;;;;;;;2.90;2.40;;;;;;;;;;5108028;28;20023;-56
2021/09/03 13:25:34;;;;;;;3.00;2.43;;;;;;;;;;5111283;28;20261;-58
2021/09/03 13:27:59;;;;;;;2.90;2.70;;;;;;;;;;5110666;28;20289;-57
2021/09/03 13:30:25;;;;;;;2.87;2.67;;;;;;;;;;5110660;28;20014;-57
2021/09/03 13:32:50;;;;;;;3.92;2.78;;;;;;;;;;5092751;28;20114;-58
2021/09/03 13:35:18;;;;;;;2.77;2.57;;;;;;;;;;5106616;28;20027;-58
2021/09/03 13:37:44;;;;;;;5.10;2.50;;;;;;;;;;5110976;28;20072;-58
2021/09/03 13:40:09;;;;;;;2.55;2.35;;;;;;;;;;5111148;28;20023;-58
2021/09/03 13:42:35;;;;;;;2.55;2.35;;;;;;;;;;5110707;28;20036;-56
2021/09/03 13:45:00;;;;;;;3.13;2.63;;;;;;;;;;5110452;28;20519;-56
2021/09/03 13:47:25;;;;;;;2.67;2.47;;;;;;;;;;5111045;28;20417;-54
2021/09/03 13:49:50;;;;;;;2.50;2.30;;;;;;;;;;5093357;28;20062;-55
2021/09/03 13:52:15;;;;;;;2.57;2.37;;;;;;;;;;5112508;28;20016;-55
2021/09/03 13:54:41;;;;;;;2.87;2.17;;;;;;;;;;5111520;28;20026;-58
2021/09/03 13:57:06;;;;;;;2.08;1.98;;;;;;;;;;5115554;27;20016;-56
2021/09/03 13:59:31;;;;;;;2.80;2.60;;;;;;;;;;5113428;28;20385;-57
2021/09/03 14:01:57;;;;;;;2.93;2.73;;;;;;;;;;5114282;28;20269;-57
2021/09/03 14:04:22;;;;;;;4.80;2.40;;;;;;;;;;5115403;28;20014;-56
2021/09/03 14:06:47;;;;;;;3.10;2.50;;;;;;;;;;5115231;28;20169;-57
2021/09/03 14:09:13;;;;;;;4.37;2.80;;;;;;;;;;5112334;28;20016;-56
2021/09/03 14:11:43;;;;;;;2.67;2.47;;;;;;;;;;5114473;28;20099;-58
2021/09/03 14:14:08;;;;;;;3.20;2.75;;;;;;;;;;5113890;28;20023;-57
2021/09/03 14:16:34;;;;;;;3.92;2.80;;;;;;;;;;5114527;28;20072;-57
2021/09/03 14:18:59;;;;;;;2.90;2.60;;;;;;;;;;5113850;28;20020;-58
2021/09/03 14:21:24;;;;;;;2.77;2.47;;;;;;;;;;5115071;28;20361;-56
2021/09/03 14:23:49;;;;;;;2.97;2.60;;;;;;;;;;5114472;28;20034;-56
2021/09/03 14:26:14;;;;;;;3.40;2.60;;;;;;;;;;5115022;28;20012;-57
2021/09/03 14:28:40;;;;;;;4.00;3.07;;;;;;;;;;5114091;28;20293;-57